sensor_id;sensor_type;location;lat;lon;timestamp;P1;durP1;ratioP1;P2;durP2;ratioP2
20802;SDS011;10562;-33.856;151.182;2023-07-22T00:01:42;5.55;;;1.35;;
20802;SDS011;10562;-33.856;151.182;2023-07-22T00:04:13;2.92;;;1.30;;
20802;SDS011;10562;-33.856;151.182;2023-07-22T00:06:44;4.90;;;1.50;;
20802;SDS011;10562;-33.856;151.182;2023-07-22T00:09:14;4.43;;;1.15;;
20802;SDS011;10562;-33.856;151.182;2023-07-22T00:11:46;5.00;;;1.50;;
20802;SDS011;10562;-33.856;151.182;2023-07-22T00:14:19;5.53;;;1.58;;
20802;SDS011;10562;-33.856;151.182;2023-07-22T00:16:52;36.05;;;14.80;;
20802;SDS011;10562;-33.856;151.182;2023-07-22T00:19:23;7.53;;;3.08;;
20802;SDS011;10562;-33.856;151.182;2023-07-22T00:21:53;8.15;;;2.25;;
20802;SDS011;10562;-33.856;151.182;2023-07-22T00:24:24;3.85;;;1.60;;
20802;SDS011;10562;-33.856;151.182;2023-07-22T00:26:55;4.93;;;1.45;;
20802;SDS011;10562;-33.856;151.182;2023-07-22T00:29:26;4.95;;;1.50;;
20802;SDS011;10562;-33.856;151.182;2023-07-22T00:32:01;4.60;;;1.30;;
20802;SDS011;10562;-33.856;151.182;2023-07-22T00:34:34;5.13;;;1.42;;
20802;SDS011;10562;-33.856;151.182;2023-07-22T00:37:05;6.03;;;1.50;;
20802;SDS011;10562;-33.856;151.182;2023-07-22T00:39:38;4.20;;;1.70;;
20802;SDS011;10562;-33.856;151.182;2023-07-22T00:42:09;5.35;;;1.30;;
20802;SDS011;10562;-33.856;151.182;2023-07-22T00:44:43;6.32;;;1.50;;
20802;SDS011;10562;-33.856;151.182;2023-07-22T00:47:19;6.32;;;1.35;;
20802;SDS011;10562;-33.856;151.182;2023-07-22T00:49:50;3.95;;;1.40;;
20802;SDS011;10562;-33.856;151.182;2023-07-22T00:52:21;4.72;;;1.50;;
20802;SDS011;10562;-33.856;151.182;2023-07-22T00:54:52;3.28;;;1.42;;
20802;SDS011;10562;-33.856;151.182;2023-07-22T00:57:23;3.00;;;1.30;;
20802;SDS011;10562;-33.856;151.182;2023-07-22T00:59:54;5.25;;;1.40;;
20802;SDS011;10562;-33.856;151.182;2023-07-22T01:02:27;6.47;;;1.55;;
20802;SDS011;10562;-33.856;151.182;2023-07-22T01:04:58;5.13;;;1.52;;
20802;SDS011;10562;-33.856;151.182;2023-07-22T01:07:29;3.72;;;1.30;;
20802;SDS011;10562;-33.856;151.182;2023-07-22T01:10:00;4.22;;;1.30;;
20802;SDS011;10562;-33.856;151.182;2023-07-22T01:12:32;5.10;;;1.55;;
20802;SDS011;10562;-33.856;151.182;2023-07-22T01:15:05;4.90;;;1.40;;
20802;SDS011;10562;-33.856;151.182;2023-07-22T01:17:38;6.53;;;1.50;;
20802;SDS011;10562;-33.856;151.182;2023-07-22T01:20:09;6.32;;;1.48;;
20802;SDS011;10562;-33.856;151.182;2023-07-22T01:22:41;3.97;;;1.52;;
20802;SDS011;10562;-33.856;151.182;2023-07-22T01:25:19;8.13;;;1.40;;
20802;SDS011;10562;-33.856;151.182;2023-07-22T01:27:50;2.92;;;1.30;;
20802;SDS011;10562;-33.856;151.182;2023-07-22T01:30:21;5.30;;;1.30;;
20802;SDS011;10562;-33.856;151.182;2023-07-22T01:32:53;4.97;;;1.60;;
20802;SDS011;10562;-33.856;151.182;2023-07-22T01:35:24;8.30;;;1.80;;
20802;SDS011;10562;-33.856;151.182;2023-07-22T01:37:56;6.43;;;1.50;;
20802;SDS011;10562;-33.856;151.182;2023-07-22T01:40:27;4.18;;;1.40;;
20802;SDS011;10562;-33.856;151.182;2023-07-22T01:42:59;3.53;;;1.35;;
20802;SDS011;10562;-33.856;151.182;2023-07-22T01:45:30;5.97;;;1.30;;
20802;SDS011;10562;-33.856;151.182;2023-07-22T01:48:00;3.72;;;1.35;;
20802;SDS011;10562;-33.856;151.182;2023-07-22T01:50:31;3.47;;;1.23;;
20802;SDS011;10562;-33.856;151.182;2023-07-22T01:53:04;6.90;;;1.38;;
20802;SDS011;10562;-33.856;151.182;2023-07-22T01:55:35;4.20;;;1.30;;
20802;SDS011;10562;-33.856;151.182;2023-07-22T01:58:06;3.88;;;1.30;;
20802;SDS011;10562;-33.856;151.182;2023-07-22T02:00:38;9.13;;;1.90;;
20802;SDS011;10562;-33.856;151.182;2023-07-22T02:03:09;4.50;;;1.50;;
20802;SDS011;10562;-33.856;151.182;2023-07-22T02:05:40;5.32;;;1.38;;
20802;SDS011;10562;-33.856;151.182;2023-07-22T02:08:13;9.43;;;4.35;;
20802;SDS011;10562;-33.856;151.182;2023-07-22T02:10:44;34.50;;;19.42;;
20802;SDS011;10562;-33.856;151.182;2023-07-22T02:13:15;14.73;;;8.05;;
20802;SDS011;10562;-33.856;151.182;2023-07-22T02:15:45;6.07;;;3.10;;
20802;SDS011;10562;-33.856;151.182;2023-07-22T02:18:16;5.38;;;1.90;;
20802;SDS011;10562;-33.856;151.182;2023-07-22T02:20:47;6.05;;;1.38;;
20802;SDS011;10562;-33.856;151.182;2023-07-22T02:23:20;5.18;;;1.42;;
20802;SDS011;10562;-33.856;151.182;2023-07-22T02:25:51;3.63;;;1.35;;
20802;SDS011;10562;-33.856;151.182;2023-07-22T02:28:22;3.38;;;1.30;;
20802;SDS011;10562;-33.856;151.182;2023-07-22T02:30:53;6.35;;;1.40;;
20802;SDS011;10562;-33.856;151.182;2023-07-22T02:33:24;4.03;;;1.42;;
20802;SDS011;10562;-33.856;151.182;2023-07-22T02:35:55;4.72;;;1.30;;
20802;SDS011;10562;-33.856;151.182;2023-07-22T02:38:28;3.00;;;1.10;;
20802;SDS011;10562;-33.856;151.182;2023-07-22T02:41:01;3.80;;;1.13;;
20802;SDS011;10562;-33.856;151.182;2023-07-22T02:43:34;1.88;;;1.10;;
20802;SDS011;10562;-33.856;151.182;2023-07-22T02:46:07;3.20;;;1.20;;
20802;SDS011;10562;-33.856;151.182;2023-07-22T02:48:38;4.72;;;1.40;;
20802;SDS011;10562;-33.856;151.182;2023-07-22T02:51:09;4.35;;;1.60;;
20802;SDS011;10562;-33.856;151.182;2023-07-22T02:53:42;5.05;;;1.40;;
20802;SDS011;10562;-33.856;151.182;2023-07-22T02:56:13;4.28;;;1.52;;
20802;SDS011;10562;-33.856;151.182;2023-07-22T02:58:44;3.58;;;1.20;;
20802;SDS011;10562;-33.856;151.182;2023-07-22T03:01:15;6.13;;;1.58;;
20802;SDS011;10562;-33.856;151.182;2023-07-22T03:03:46;5.28;;;1.80;;
20802;SDS011;10562;-33.856;151.182;2023-07-22T03:06:17;7.45;;;1.80;;
20802;SDS011;10562;-33.856;151.182;2023-07-22T03:08:50;4.32;;;1.80;;
20802;SDS011;10562;-33.856;151.182;2023-07-22T03:11:21;5.20;;;1.70;;
20802;SDS011;10562;-33.856;151.182;2023-07-22T03:13:53;5.00;;;1.75;;
20802;SDS011;10562;-33.856;151.182;2023-07-22T03:16:24;11.85;;;3.85;;
20802;SDS011;10562;-33.856;151.182;2023-07-22T03:18:55;10.85;;;4.35;;
20802;SDS011;10562;-33.856;151.182;2023-07-22T03:21:26;8.77;;;2.53;;
20802;SDS011;10562;-33.856;151.182;2023-07-22T03:23:58;4.57;;;2.80;;
20802;SDS011;10562;-33.856;151.182;2023-07-22T03:26:29;6.75;;;2.50;;
20802;SDS011;10562;-33.856;151.182;2023-07-22T03:29:00;6.43;;;2.72;;
20802;SDS011;10562;-33.856;151.182;2023-07-22T03:31:31;6.15;;;2.70;;
20802;SDS011;10562;-33.856;151.182;2023-07-22T03:34:02;11.02;;;1.98;;
20802;SDS011;10562;-33.856;151.182;2023-07-22T03:36:33;3.95;;;1.55;;
20802;SDS011;10562;-33.856;151.182;2023-07-22T03:39:06;4.72;;;1.80;;
20802;SDS011;10562;-33.856;151.182;2023-07-22T03:41:37;4.90;;;2.10;;
20802;SDS011;10562;-33.856;151.182;2023-07-22T03:44:07;3.33;;;1.38;;
20802;SDS011;10562;-33.856;151.182;2023-07-22T03:46:38;3.55;;;1.52;;
20802;SDS011;10562;-33.856;151.182;2023-07-22T03:49:09;8.20;;;1.77;;
20802;SDS011;10562;-33.856;151.182;2023-07-22T03:51:40;4.55;;;1.67;;
20802;SDS011;10562;-33.856;151.182;2023-07-22T03:54:12;7.57;;;3.25;;
20802;SDS011;10562;-33.856;151.182;2023-07-22T03:56:43;6.72;;;1.90;;
20802;SDS011;10562;-33.856;151.182;2023-07-22T03:59:14;5.40;;;2.28;;
20802;SDS011;10562;-33.856;151.182;2023-07-22T04:01:46;3.83;;;1.80;;
20802;SDS011;10562;-33.856;151.182;2023-07-22T04:04:17;3.30;;;1.50;;
20802;SDS011;10562;-33.856;151.182;2023-07-22T04:06:47;4.82;;;1.70;;
20802;SDS011;10562;-33.856;151.182;2023-07-22T04:09:20;3.15;;;1.83;;
20802;SDS011;10562;-33.856;151.182;2023-07-22T04:11:52;7.63;;;3.20;;
20802;SDS011;10562;-33.856;151.182;2023-07-22T04:14:22;9.15;;;3.80;;
20802;SDS011;10562;-33.856;151.182;2023-07-22T04:16:53;12.57;;;7.18;;
20802;SDS011;10562;-33.856;151.182;2023-07-22T04:19:24;9.70;;;5.07;;
20802;SDS011;10562;-33.856;151.182;2023-07-22T04:21:55;9.02;;;3.70;;
20802;SDS011;10562;-33.856;151.182;2023-07-22T04:24:28;3.70;;;1.90;;
20802;SDS011;10562;-33.856;151.182;2023-07-22T04:27:01;6.00;;;2.20;;
20802;SDS011;10562;-33.856;151.182;2023-07-22T04:29:32;6.25;;;2.70;;
20802;SDS011;10562;-33.856;151.182;2023-07-22T04:32:03;8.32;;;3.33;;
20802;SDS011;10562;-33.856;151.182;2023-07-22T04:34:35;9.85;;;4.63;;
20802;SDS011;10562;-33.856;151.182;2023-07-22T04:37:06;14.90;;;7.82;;
20802;SDS011;10562;-33.856;151.182;2023-07-22T04:39:39;7.80;;;4.45;;
20802;SDS011;10562;-33.856;151.182;2023-07-22T04:42:10;9.63;;;3.88;;
20802;SDS011;10562;-33.856;151.182;2023-07-22T04:44:42;5.20;;;2.30;;
20802;SDS011;10562;-33.856;151.182;2023-07-22T04:47:14;4.97;;;2.20;;
20802;SDS011;10562;-33.856;151.182;2023-07-22T04:49:45;7.07;;;2.15;;
20802;SDS011;10562;-33.856;151.182;2023-07-22T04:52:17;5.50;;;2.47;;
20802;SDS011;10562;-33.856;151.182;2023-07-22T04:54:54;4.38;;;1.73;;
20802;SDS011;10562;-33.856;151.182;2023-07-22T04:57:25;3.60;;;1.55;;
20802;SDS011;10562;-33.856;151.182;2023-07-22T04:59:56;3.17;;;1.42;;
20802;SDS011;10562;-33.856;151.182;2023-07-22T05:02:30;5.32;;;1.80;;
20802;SDS011;10562;-33.856;151.182;2023-07-22T05:05:01;3.33;;;1.33;;
20802;SDS011;10562;-33.856;151.182;2023-07-22T05:07:32;4.60;;;1.13;;
20802;SDS011;10562;-33.856;151.182;2023-07-22T05:10:10;4.13;;;1.60;;
20802;SDS011;10562;-33.856;151.182;2023-07-22T05:12:41;3.83;;;1.45;;
20802;SDS011;10562;-33.856;151.182;2023-07-22T05:15:13;5.38;;;1.73;;
20802;SDS011;10562;-33.856;151.182;2023-07-22T05:17:43;4.43;;;2.10;;
20802;SDS011;10562;-33.856;151.182;2023-07-22T05:20:16;5.88;;;3.00;;
20802;SDS011;10562;-33.856;151.182;2023-07-22T05:22:46;4.55;;;1.90;;
20802;SDS011;10562;-33.856;151.182;2023-07-22T05:25:21;2.95;;;1.33;;
20802;SDS011;10562;-33.856;151.182;2023-07-22T05:27:51;3.45;;;1.27;;
20802;SDS011;10562;-33.856;151.182;2023-07-22T05:30:22;2.05;;;1.20;;
20802;SDS011;10562;-33.856;151.182;2023-07-22T05:32:53;2.05;;;1.13;;
20802;SDS011;10562;-33.856;151.182;2023-07-22T05:35:24;3.47;;;1.20;;
20802;SDS011;10562;-33.856;151.182;2023-07-22T05:37:54;3.00;;;1.20;;
20802;SDS011;10562;-33.856;151.182;2023-07-22T05:40:27;1.95;;;1.20;;
20802;SDS011;10562;-33.856;151.182;2023-07-22T05:42:58;4.25;;;1.30;;
20802;SDS011;10562;-33.856;151.182;2023-07-22T05:45:29;3.22;;;1.25;;
20802;SDS011;10562;-33.856;151.182;2023-07-22T05:48:00;2.47;;;1.38;;
20802;SDS011;10562;-33.856;151.182;2023-07-22T05:50:31;3.88;;;1.60;;
20802;SDS011;10562;-33.856;151.182;2023-07-22T05:53:02;2.67;;;1.25;;
20802;SDS011;10562;-33.856;151.182;2023-07-22T05:55:35;3.40;;;1.00;;
20802;SDS011;10562;-33.856;151.182;2023-07-22T05:58:06;2.78;;;1.15;;
20802;SDS011;10562;-33.856;151.182;2023-07-22T06:00:44;3.92;;;1.65;;
20802;SDS011;10562;-33.856;151.182;2023-07-22T06:03:15;5.35;;;1.30;;
20802;SDS011;10562;-33.856;151.182;2023-07-22T06:05:47;2.35;;;1.40;;
20802;SDS011;10562;-33.856;151.182;2023-07-22T06:08:18;3.10;;;1.30;;
20802;SDS011;10562;-33.856;151.182;2023-07-22T06:10:51;3.42;;;1.33;;
20802;SDS011;10562;-33.856;151.182;2023-07-22T06:13:23;2.47;;;1.40;;
20802;SDS011;10562;-33.856;151.182;2023-07-22T06:15:54;4.70;;;1.60;;
20802;SDS011;10562;-33.856;151.182;2023-07-22T06:18:25;4.82;;;1.40;;
20802;SDS011;10562;-33.856;151.182;2023-07-22T06:20:56;2.88;;;1.30;;
20802;SDS011;10562;-33.856;151.182;2023-07-22T06:23:27;5.03;;;1.52;;
20802;SDS011;10562;-33.856;151.182;2023-07-22T06:25:59;6.18;;;1.50;;
20802;SDS011;10562;-33.856;151.182;2023-07-22T06:28:30;5.53;;;1.88;;
20802;SDS011;10562;-33.856;151.182;2023-07-22T06:31:01;3.75;;;1.60;;
20802;SDS011;10562;-33.856;151.182;2023-07-22T06:33:32;4.15;;;1.42;;
20802;SDS011;10562;-33.856;151.182;2023-07-22T06:36:03;4.65;;;1.55;;
20802;SDS011;10562;-33.856;151.182;2023-07-22T06:38:33;6.38;;;1.80;;
20802;SDS011;10562;-33.856;151.182;2023-07-22T06:41:06;2.22;;;1.70;;
20802;SDS011;10562;-33.856;151.182;2023-07-22T06:43:37;3.50;;;1.73;;
20802;SDS011;10562;-33.856;151.182;2023-07-22T06:46:08;3.70;;;1.65;;
20802;SDS011;10562;-33.856;151.182;2023-07-22T06:48:38;2.42;;;1.50;;
20802;SDS011;10562;-33.856;151.182;2023-07-22T06:51:09;6.15;;;1.80;;
20802;SDS011;10562;-33.856;151.182;2023-07-22T06:53:40;6.45;;;2.13;;
20802;SDS011;10562;-33.856;151.182;2023-07-22T06:56:14;4.68;;;1.80;;
20802;SDS011;10562;-33.856;151.182;2023-07-22T06:58:45;8.13;;;2.15;;
20802;SDS011;10562;-33.856;151.182;2023-07-22T07:01:17;7.85;;;3.00;;
20802;SDS011;10562;-33.856;151.182;2023-07-22T07:03:48;7.45;;;3.05;;
20802;SDS011;10562;-33.856;151.182;2023-07-22T07:06:19;14.10;;;2.70;;
20802;SDS011;10562;-33.856;151.182;2023-07-22T07:08:49;5.55;;;2.33;;
20802;SDS011;10562;-33.856;151.182;2023-07-22T07:11:24;8.50;;;2.05;;
20802;SDS011;10562;-33.856;151.182;2023-07-22T07:13:56;6.82;;;2.10;;
20802;SDS011;10562;-33.856;151.182;2023-07-22T07:16:27;4.18;;;1.75;;
20802;SDS011;10562;-33.856;151.182;2023-07-22T07:19:00;4.70;;;1.88;;
20802;SDS011;10562;-33.856;151.182;2023-07-22T07:21:31;6.47;;;1.92;;
20802;SDS011;10562;-33.856;151.182;2023-07-22T07:24:02;3.75;;;1.70;;
20802;SDS011;10562;-33.856;151.182;2023-07-22T07:26:37;4.75;;;1.90;;
20802;SDS011;10562;-33.856;151.182;2023-07-22T07:29:08;6.30;;;2.00;;
20802;SDS011;10562;-33.856;151.182;2023-07-22T07:31:39;4.43;;;1.85;;
20802;SDS011;10562;-33.856;151.182;2023-07-22T07:34:10;7.68;;;2.05;;
20802;SDS011;10562;-33.856;151.182;2023-07-22T07:36:40;4.75;;;2.03;;
20802;SDS011;10562;-33.856;151.182;2023-07-22T07:39:13;6.60;;;2.13;;
20802;SDS011;10562;-33.856;151.182;2023-07-22T07:41:47;4.88;;;2.00;;
20802;SDS011;10562;-33.856;151.182;2023-07-22T07:44:18;3.17;;;1.75;;
20802;SDS011;10562;-33.856;151.182;2023-07-22T07:46:50;7.70;;;2.55;;
20802;SDS011;10562;-33.856;151.182;2023-07-22T07:49:21;11.10;;;2.58;;
20802;SDS011;10562;-33.856;151.182;2023-07-22T07:51:55;7.55;;;2.90;;
20802;SDS011;10562;-33.856;151.182;2023-07-22T07:54:43;10.45;;;2.30;;
20802;SDS011;10562;-33.856;151.182;2023-07-22T08:00:06;9.50;;;3.20;;
20802;SDS011;10562;-33.856;151.182;2023-07-22T08:02:40;10.48;;;3.85;;
20802;SDS011;10562;-33.856;151.182;2023-07-22T08:05:13;16.55;;;5.07;;
20802;SDS011;10562;-33.856;151.182;2023-07-22T08:07:45;19.63;;;5.40;;
20802;SDS011;10562;-33.856;151.182;2023-07-22T08:10:16;22.88;;;6.47;;
20802;SDS011;10562;-33.856;151.182;2023-07-22T08:12:49;14.85;;;4.35;;
20802;SDS011;10562;-33.856;151.182;2023-07-22T08:15:23;16.13;;;4.53;;
20802;SDS011;10562;-33.856;151.182;2023-07-22T08:17:55;10.57;;;4.80;;
20802;SDS011;10562;-33.856;151.182;2023-07-22T08:20:25;12.73;;;4.18;;
20802;SDS011;10562;-33.856;151.182;2023-07-22T08:22:56;14.25;;;4.78;;
20802;SDS011;10562;-33.856;151.182;2023-07-22T08:25:27;18.63;;;5.75;;
20802;SDS011;10562;-33.856;151.182;2023-07-22T08:28:00;14.20;;;5.50;;
20802;SDS011;10562;-33.856;151.182;2023-07-22T08:30:31;13.90;;;5.10;;
20802;SDS011;10562;-33.856;151.182;2023-07-22T08:33:03;22.55;;;5.47;;
20802;SDS011;10562;-33.856;151.182;2023-07-22T08:35:34;15.50;;;5.22;;
20802;SDS011;10562;-33.856;151.182;2023-07-22T08:38:05;17.15;;;5.30;;
20802;SDS011;10562;-33.856;151.182;2023-07-22T08:40:37;10.57;;;4.50;;
20802;SDS011;10562;-33.856;151.182;2023-07-22T08:43:10;15.77;;;4.53;;
20802;SDS011;10562;-33.856;151.182;2023-07-22T08:45:41;15.07;;;4.18;;
20802;SDS011;10562;-33.856;151.182;2023-07-22T08:48:15;13.38;;;4.88;;
20802;SDS011;10562;-33.856;151.182;2023-07-22T08:50:48;13.75;;;5.30;;
20802;SDS011;10562;-33.856;151.182;2023-07-22T08:53:21;16.30;;;8.65;;
20802;SDS011;10562;-33.856;151.182;2023-07-22T08:55:53;24.98;;;10.95;;
20802;SDS011;10562;-33.856;151.182;2023-07-22T08:58:26;18.42;;;9.02;;
20802;SDS011;10562;-33.856;151.182;2023-07-22T09:00:57;12.60;;;6.70;;
20802;SDS011;10562;-33.856;151.182;2023-07-22T09:03:29;18.83;;;7.50;;
20802;SDS011;10562;-33.856;151.182;2023-07-22T09:06:01;14.52;;;6.57;;
20802;SDS011;10562;-33.856;151.182;2023-07-22T09:08:33;15.27;;;5.63;;
20802;SDS011;10562;-33.856;151.182;2023-07-22T09:11:04;12.57;;;5.22;;
20802;SDS011;10562;-33.856;151.182;2023-07-22T09:13:39;12.07;;;5.30;;
20802;SDS011;10562;-33.856;151.182;2023-07-22T09:16:12;12.70;;;5.40;;
20802;SDS011;10562;-33.856;151.182;2023-07-22T09:18:44;14.55;;;5.72;;
20802;SDS011;10562;-33.856;151.182;2023-07-22T09:21:15;15.38;;;6.20;;
20802;SDS011;10562;-33.856;151.182;2023-07-22T09:23:46;18.90;;;6.32;;
20802;SDS011;10562;-33.856;151.182;2023-07-22T09:26:17;18.95;;;6.75;;
20802;SDS011;10562;-33.856;151.182;2023-07-22T09:28:51;16.60;;;6.63;;
20802;SDS011;10562;-33.856;151.182;2023-07-22T09:31:23;16.73;;;6.28;;
20802;SDS011;10562;-33.856;151.182;2023-07-22T09:33:56;17.60;;;6.22;;
20802;SDS011;10562;-33.856;151.182;2023-07-22T09:36:49;21.10;;;8.00;;
20802;SDS011;10562;-33.856;151.182;2023-07-22T09:39:21;20.80;;;7.97;;
20802;SDS011;10562;-33.856;151.182;2023-07-22T09:41:52;19.65;;;7.95;;
20802;SDS011;10562;-33.856;151.182;2023-07-22T09:44:30;15.85;;;7.30;;
20802;SDS011;10562;-33.856;151.182;2023-07-22T09:47:06;21.00;;;8.15;;
20802;SDS011;10562;-33.856;151.182;2023-07-22T09:49:40;20.58;;;8.20;;
20802;SDS011;10562;-33.856;151.182;2023-07-22T09:52:13;16.33;;;7.70;;
20802;SDS011;10562;-33.856;151.182;2023-07-22T09:54:47;21.50;;;8.48;;
20802;SDS011;10562;-33.856;151.182;2023-07-22T09:57:18;19.52;;;8.57;;
20802;SDS011;10562;-33.856;151.182;2023-07-22T09:59:53;22.10;;;10.25;;
20802;SDS011;10562;-33.856;151.182;2023-07-22T10:02:24;20.98;;;9.77;;
20802;SDS011;10562;-33.856;151.182;2023-07-22T10:04:55;26.40;;;10.77;;
20802;SDS011;10562;-33.856;151.182;2023-07-22T10:07:31;26.42;;;10.38;;
20802;SDS011;10562;-33.856;151.182;2023-07-22T10:10:05;24.17;;;10.15;;
20802;SDS011;10562;-33.856;151.182;2023-07-22T10:12:37;26.95;;;10.48;;
20802;SDS011;10562;-33.856;151.182;2023-07-22T10:15:13;26.67;;;10.77;;
20802;SDS011;10562;-33.856;151.182;2023-07-22T10:17:44;24.65;;;10.98;;
20802;SDS011;10562;-33.856;151.182;2023-07-22T10:20:16;24.17;;;10.40;;
20802;SDS011;10562;-33.856;151.182;2023-07-22T10:22:48;26.48;;;10.70;;
20802;SDS011;10562;-33.856;151.182;2023-07-22T10:25:20;21.45;;;10.65;;
20802;SDS011;10562;-33.856;151.182;2023-07-22T10:27:51;25.25;;;10.38;;
20802;SDS011;10562;-33.856;151.182;2023-07-22T10:30:24;21.70;;;9.88;;
20802;SDS011;10562;-33.856;151.182;2023-07-22T10:32:56;20.30;;;8.57;;
20802;SDS011;10562;-33.856;151.182;2023-07-22T10:35:34;18.02;;;8.07;;
20802;SDS011;10562;-33.856;151.182;2023-07-22T10:38:12;20.63;;;9.35;;
20802;SDS011;10562;-33.856;151.182;2023-07-22T10:40:47;18.80;;;8.30;;
20802;SDS011;10562;-33.856;151.182;2023-07-22T10:43:25;18.63;;;8.27;;
20802;SDS011;10562;-33.856;151.182;2023-07-22T10:46:04;19.75;;;8.15;;
20802;SDS011;10562;-33.856;151.182;2023-07-22T10:48:38;18.13;;;8.25;;
20802;SDS011;10562;-33.856;151.182;2023-07-22T10:51:10;18.25;;;8.18;;
20802;SDS011;10562;-33.856;151.182;2023-07-22T10:53:41;18.98;;;8.23;;
20802;SDS011;10562;-33.856;151.182;2023-07-22T10:56:13;23.10;;;9.40;;
20802;SDS011;10562;-33.856;151.182;2023-07-22T10:58:58;18.52;;;8.52;;
20802;SDS011;10562;-33.856;151.182;2023-07-22T11:01:38;22.55;;;8.60;;
20802;SDS011;10562;-33.856;151.182;2023-07-22T11:04:10;17.10;;;7.72;;
20802;SDS011;10562;-33.856;151.182;2023-07-22T11:06:57;15.30;;;7.38;;
20802;SDS011;10562;-33.856;151.182;2023-07-22T11:09:39;16.90;;;6.90;;
20802;SDS011;10562;-33.856;151.182;2023-07-22T11:12:13;18.08;;;6.72;;
20802;SDS011;10562;-33.856;151.182;2023-07-22T11:14:47;17.10;;;6.63;;
20802;SDS011;10562;-33.856;151.182;2023-07-22T11:17:27;17.63;;;6.88;;
20802;SDS011;10562;-33.856;151.182;2023-07-22T11:19:59;15.35;;;6.70;;
20802;SDS011;10562;-33.856;151.182;2023-07-22T11:22:30;17.17;;;6.53;;
20802;SDS011;10562;-33.856;151.182;2023-07-22T11:25:01;11.15;;;6.00;;
20802;SDS011;10562;-33.856;151.182;2023-07-22T11:27:32;15.40;;;6.38;;
20802;SDS011;10562;-33.856;151.182;2023-07-22T11:30:03;17.15;;;7.15;;
20802;SDS011;10562;-33.856;151.182;2023-07-22T11:32:36;16.70;;;7.15;;
20802;SDS011;10562;-33.856;151.182;2023-07-22T11:35:12;16.42;;;7.20;;
20802;SDS011;10562;-33.856;151.182;2023-07-22T11:37:46;17.83;;;7.43;;
20802;SDS011;10562;-33.856;151.182;2023-07-22T11:40:16;16.90;;;6.75;;
20802;SDS011;10562;-33.856;151.182;2023-07-22T11:42:47;17.85;;;7.05;;
20802;SDS011;10562;-33.856;151.182;2023-07-22T11:45:21;13.95;;;6.75;;
20802;SDS011;10562;-33.856;151.182;2023-07-22T11:47:56;14.90;;;6.68;;
20802;SDS011;10562;-33.856;151.182;2023-07-22T11:50:33;15.35;;;6.57;;
20802;SDS011;10562;-33.856;151.182;2023-07-22T11:53:04;14.65;;;6.97;;
20802;SDS011;10562;-33.856;151.182;2023-07-22T11:55:35;16.35;;;7.20;;
20802;SDS011;10562;-33.856;151.182;2023-07-22T11:58:07;16.80;;;7.45;;
20802;SDS011;10562;-33.856;151.182;2023-07-22T12:00:38;22.63;;;8.15;;
20802;SDS011;10562;-33.856;151.182;2023-07-22T12:03:16;17.95;;;7.22;;
20802;SDS011;10562;-33.856;151.182;2023-07-22T12:05:50;16.65;;;7.55;;
20802;SDS011;10562;-33.856;151.182;2023-07-22T12:08:21;19.00;;;7.55;;
20802;SDS011;10562;-33.856;151.182;2023-07-22T12:10:56;17.67;;;7.45;;
20802;SDS011;10562;-33.856;151.182;2023-07-22T12:13:27;17.35;;;7.65;;
20802;SDS011;10562;-33.856;151.182;2023-07-22T12:16:01;17.80;;;7.22;;
20802;SDS011;10562;-33.856;151.182;2023-07-22T12:18:46;19.27;;;7.40;;
20802;SDS011;10562;-33.856;151.182;2023-07-22T12:21:17;18.25;;;6.65;;
20802;SDS011;10562;-33.856;151.182;2023-07-22T12:23:53;18.15;;;6.70;;
20802;SDS011;10562;-33.856;151.182;2023-07-22T12:26:24;16.67;;;7.28;;
20802;SDS011;10562;-33.856;151.182;2023-07-22T12:28:55;18.98;;;7.47;;
20802;SDS011;10562;-33.856;151.182;2023-07-22T12:31:26;16.55;;;7.25;;
20802;SDS011;10562;-33.856;151.182;2023-07-22T12:33:58;18.02;;;7.45;;
20802;SDS011;10562;-33.856;151.182;2023-07-22T12:36:29;18.50;;;7.45;;
20802;SDS011;10562;-33.856;151.182;2023-07-22T12:39:00;17.23;;;7.10;;
20802;SDS011;10562;-33.856;151.182;2023-07-22T12:41:31;16.85;;;7.18;;
20802;SDS011;10562;-33.856;151.182;2023-07-22T12:44:01;18.15;;;7.38;;
20802;SDS011;10562;-33.856;151.182;2023-07-22T12:46:32;19.58;;;7.13;;
20802;SDS011;10562;-33.856;151.182;2023-07-22T12:49:05;20.05;;;7.78;;
20802;SDS011;10562;-33.856;151.182;2023-07-22T12:51:37;19.58;;;7.28;;
20802;SDS011;10562;-33.856;151.182;2023-07-22T12:54:11;19.40;;;7.47;;
20802;SDS011;10562;-33.856;151.182;2023-07-22T12:56:42;17.70;;;7.28;;
20802;SDS011;10562;-33.856;151.182;2023-07-22T12:59:13;17.83;;;7.65;;
20802;SDS011;10562;-33.856;151.182;2023-07-22T13:01:44;19.00;;;7.32;;
20802;SDS011;10562;-33.856;151.182;2023-07-22T13:04:16;17.85;;;7.43;;
20802;SDS011;10562;-33.856;151.182;2023-07-22T13:06:47;16.08;;;7.78;;
20802;SDS011;10562;-33.856;151.182;2023-07-22T13:09:19;16.30;;;6.93;;
20802;SDS011;10562;-33.856;151.182;2023-07-22T13:11:50;18.75;;;7.07;;
20802;SDS011;10562;-33.856;151.182;2023-07-22T13:14:20;16.58;;;7.07;;
20802;SDS011;10562;-33.856;151.182;2023-07-22T13:16:54;24.52;;;6.97;;
20802;SDS011;10562;-33.856;151.182;2023-07-22T13:19:27;18.55;;;7.30;;
20802;SDS011;10562;-33.856;151.182;2023-07-22T13:21:58;18.13;;;7.00;;
20802;SDS011;10562;-33.856;151.182;2023-07-22T13:24:29;16.70;;;7.20;;
20802;SDS011;10562;-33.856;151.182;2023-07-22T13:26:59;18.90;;;7.28;;
20802;SDS011;10562;-33.856;151.182;2023-07-22T13:29:32;19.30;;;7.30;;
20802;SDS011;10562;-33.856;151.182;2023-07-22T13:32:03;20.77;;;7.57;;
20802;SDS011;10562;-33.856;151.182;2023-07-22T13:34:37;17.13;;;6.80;;
20802;SDS011;10562;-33.856;151.182;2023-07-22T13:37:08;16.77;;;6.90;;
20802;SDS011;10562;-33.856;151.182;2023-07-22T13:39:39;14.52;;;6.75;;
20802;SDS011;10562;-33.856;151.182;2023-07-22T13:42:10;19.40;;;7.25;;
20802;SDS011;10562;-33.856;151.182;2023-07-22T13:44:41;16.15;;;6.90;;
20802;SDS011;10562;-33.856;151.182;2023-07-22T13:47:12;17.88;;;7.30;;
20802;SDS011;10562;-33.856;151.182;2023-07-22T13:49:44;13.82;;;6.65;;
20802;SDS011;10562;-33.856;151.182;2023-07-22T13:52:15;18.35;;;7.07;;
20802;SDS011;10562;-33.856;151.182;2023-07-22T13:54:46;15.63;;;6.78;;
20802;SDS011;10562;-33.856;151.182;2023-07-22T13:57:17;20.25;;;6.78;;
20802;SDS011;10562;-33.856;151.182;2023-07-22T13:59:51;16.50;;;6.95;;
20802;SDS011;10562;-33.856;151.182;2023-07-22T14:02:21;19.17;;;7.43;;
20802;SDS011;10562;-33.856;151.182;2023-07-22T14:04:54;16.85;;;6.72;;
20802;SDS011;10562;-33.856;151.182;2023-07-22T14:07:25;20.88;;;7.18;;
20802;SDS011;10562;-33.856;151.182;2023-07-22T14:09:55;20.27;;;6.85;;
20802;SDS011;10562;-33.856;151.182;2023-07-22T14:12:26;20.27;;;6.90;;
20802;SDS011;10562;-33.856;151.182;2023-07-22T14:14:57;16.65;;;6.22;;
20802;SDS011;10562;-33.856;151.182;2023-07-22T14:17:30;15.15;;;6.15;;
20802;SDS011;10562;-33.856;151.182;2023-07-22T14:20:03;15.30;;;6.43;;
20802;SDS011;10562;-33.856;151.182;2023-07-22T14:22:36;12.98;;;5.72;;
20802;SDS011;10562;-33.856;151.182;2023-07-22T14:25:07;17.42;;;6.30;;
20802;SDS011;10562;-33.856;151.182;2023-07-22T14:27:38;17.27;;;6.05;;
20802;SDS011;10562;-33.856;151.182;2023-07-22T14:30:09;16.17;;;6.25;;
20802;SDS011;10562;-33.856;151.182;2023-07-22T14:32:40;15.07;;;6.28;;
20802;SDS011;10562;-33.856;151.182;2023-07-22T14:35:13;17.38;;;6.53;;